SBI8063 UNEE-UIUU
Flight info
| Callsign | SBI8063 |
|---|---|
| Flight time | 1h 47m |
| Altitude | 37000 |
| Route | LATPO1D LATPO B151 RO A817 SUKOR A91 KA A806 OSTUN |
| Aircraft | A320/M-SDFGIJ1RWY/LB1 |
Departure
| Time | 2026-04-25 18:47 |
|---|---|
| Airport | Alexei Leonov Kemerovo International Airport (UNEE) |
Arrival
| Time | 2026-04-25 20:34 |
|---|---|
| Airport | Baikal International Airport (UIUU) |
| Time | Latitude | Longitude | Altitude | Speed | Heading |
|---|---|---|---|---|---|
| 2026-04-25 18:40 | 55.28015 | 86.11873 | 852 ft | 0 kts | 325° |
| 2026-04-25 18:43 | 55.28016 | 86.11871 | 852 ft | 3 kts | 325° |
| 2026-04-25 18:44 | 55.28050 | 86.11847 | 845 ft | 10 kts | 6° |
| 2026-04-25 18:44 | 55.28095 | 86.11920 | 849 ft | 10 kts | 52° |
| 2026-04-25 18:44 | 55.28102 | 86.12032 | 846 ft | 9 kts | 128° |
| 2026-04-25 18:45 | 55.28071 | 86.12077 | 842 ft | 6 kts | 137° |
| 2026-04-25 18:45 | 55.28078 | 86.12244 | 847 ft | 18 kts | 71° |
| 2026-04-25 18:46 | 55.28034 | 86.12440 | 846 ft | 19 kts | 124° |
| 2026-04-25 18:46 | 55.27954 | 86.12628 | 850 ft | 20 kts | 130° |
| 2026-04-25 18:46 | 55.27870 | 86.12739 | 842 ft | 10 kts | 157° |
| 2026-04-25 18:46 | 55.27827 | 86.12704 | 838 ft | 4 kts | 233° |
| 2026-04-25 18:47 | 55.27804 | 86.12651 | 841 ft | 13 kts | 233° |
| 2026-04-25 18:47 | 55.27565 | 86.12089 | 851 ft | 101 kts | 233° |
| 2026-04-25 18:47 | 55.26996 | 86.10751 | 874 ft | 170 kts | 232° |
| 2026-04-25 18:47 | 55.26268 | 86.09044 | 1673 ft | 177 kts | 231° |
| 2026-04-25 18:48 | 55.25542 | 86.07335 | 2576 ft | 172 kts | 227° |
| 2026-04-25 18:48 | 55.24612 | 86.06118 | 3305 ft | 167 kts | 200° |
| 2026-04-25 18:48 | 55.23457 | 86.06004 | 3981 ft | 171 kts | 169° |
| 2026-04-25 18:48 | 55.22408 | 86.07133 | 4453 ft | 194 kts | 134° |
| 2026-04-25 18:49 | 55.21948 | 86.09514 | 4706 ft | 228 kts | 91° |
| 2026-04-25 18:49 | 55.22148 | 86.12430 | 5020 ft | 253 kts | 82° |
| 2026-04-25 18:49 | 55.22486 | 86.15611 | 5388 ft | 277 kts | 80° |
| 2026-04-25 18:49 | 55.22878 | 86.19006 | 6043 ft | 289 kts | 79° |
| 2026-04-25 18:50 | 55.23279 | 86.22487 | 6885 ft | 293 kts | 79° |
| 2026-04-25 18:50 | 55.23670 | 86.26016 | 7735 ft | 296 kts | 79° |
| 2026-04-25 18:50 | 55.24047 | 86.29536 | 8566 ft | 299 kts | 79° |
| 2026-04-25 18:50 | 55.24424 | 86.33153 | 9423 ft | 303 kts | 79° |
| 2026-04-25 18:51 | 55.24794 | 86.36798 | 10249 ft | 306 kts | 78° |
| 2026-04-25 18:51 | 55.25050 | 86.39320 | 10541 ft | 318 kts | 78° |
| 2026-04-25 18:51 | 55.25585 | 86.44624 | 10853 ft | 349 kts | 78° |
| 2026-04-25 18:51 | 55.26020 | 86.48958 | 11142 ft | 368 kts | 79° |
| 2026-04-25 18:52 | 55.26465 | 86.53440 | 11739 ft | 376 kts | 79° |
| 2026-04-25 18:52 | 55.26915 | 86.57995 | 12361 ft | 383 kts | 79° |
| 2026-04-25 18:52 | 55.27374 | 86.62641 | 12978 ft | 390 kts | 79° |
| 2026-04-25 18:52 | 55.27838 | 86.67367 | 13582 ft | 397 kts | 79° |
| 2026-04-25 18:53 | 55.28308 | 86.72179 | 14182 ft | 403 kts | 78° |
| 2026-04-25 18:53 | 55.28782 | 86.77049 | 14785 ft | 407 kts | 78° |
| 2026-04-25 18:53 | 55.29251 | 86.81907 | 15402 ft | 410 kts | 78° |
| 2026-04-25 18:53 | 55.29727 | 86.86847 | 16048 ft | 412 kts | 79° |
| 2026-04-25 18:54 | 55.30690 | 86.96842 | 17325 ft | 418 kts | 79° |
| 2026-04-25 18:54 | 55.31173 | 87.01887 | 17945 ft | 421 kts | 79° |
| 2026-04-25 18:54 | 55.31656 | 87.06969 | 18549 ft | 424 kts | 79° |
| 2026-04-25 18:55 | 55.32139 | 87.12089 | 19089 ft | 426 kts | 79° |
| 2026-04-25 18:55 | 55.32621 | 87.17240 | 19649 ft | 429 kts | 79° |
| 2026-04-25 18:55 | 55.33105 | 87.22425 | 20196 ft | 432 kts | 79° |
| 2026-04-25 18:55 | 55.33590 | 87.27648 | 20759 ft | 434 kts | 79° |
| 2026-04-25 18:56 | 55.34075 | 87.32891 | 21308 ft | 436 kts | 79° |
| 2026-04-25 18:56 | 55.34558 | 87.38153 | 21830 ft | 438 kts | 79° |
| 2026-04-25 18:56 | 55.35044 | 87.43449 | 22338 ft | 441 kts | 79° |
| 2026-04-25 18:56 | 55.35530 | 87.48782 | 22834 ft | 443 kts | 79° |
| 2026-04-25 18:57 | 55.36198 | 87.56138 | 23494 ft | 446 kts | 79° |
| 2026-04-25 18:57 | 55.36645 | 87.61565 | 23940 ft | 449 kts | 81° |
| 2026-04-25 18:57 | 55.37002 | 87.67037 | 24330 ft | 452 kts | 82° |
| 2026-04-25 18:57 | 55.37103 | 87.68825 | 24449 ft | 453 kts | 83° |
| 2026-04-25 18:58 | 55.37564 | 87.78095 | 25079 ft | 456 kts | 83° |
| 2026-04-25 18:58 | 55.38101 | 87.89186 | 25841 ft | 459 kts | 83° |
| 2026-04-25 18:58 | 55.38394 | 87.94780 | 26204 ft | 461 kts | 82° |
| 2026-04-25 18:59 | 55.39014 | 88.06041 | 26894 ft | 464 kts | 82° |
| 2026-04-25 18:59 | 55.39631 | 88.17408 | 27554 ft | 468 kts | 82° |
| 2026-04-25 19:00 | 55.40228 | 88.28874 | 28174 ft | 472 kts | 82° |
| 2026-04-25 19:00 | 55.40521 | 88.34653 | 28492 ft | 474 kts | 82° |
| 2026-04-25 19:01 | 55.41102 | 88.46240 | 29069 ft | 477 kts | 82° |
| 2026-04-25 19:01 | 55.41390 | 88.51997 | 29341 ft | 479 kts | 82° |
| 2026-04-25 19:01 | 55.41683 | 88.57854 | 29603 ft | 480 kts | 82° |
| 2026-04-25 19:01 | 55.41976 | 88.63725 | 29856 ft | 482 kts | 82° |
| 2026-04-25 19:02 | 55.42543 | 88.75481 | 30493 ft | 481 kts | 83° |
| 2026-04-25 19:02 | 55.42814 | 88.81338 | 30794 ft | 480 kts | 83° |
| 2026-04-25 19:02 | 55.43084 | 88.87200 | 31108 ft | 479 kts | 83° |
| 2026-04-25 19:03 | 55.43446 | 88.95011 | 31569 ft | 476 kts | 83° |
| 2026-04-25 19:03 | 55.43887 | 89.04531 | 32099 ft | 473 kts | 83° |
| 2026-04-25 19:03 | 55.44157 | 89.10302 | 32411 ft | 472 kts | 83° |
| 2026-04-25 19:04 | 55.44681 | 89.21749 | 33022 ft | 470 kts | 83° |
| 2026-04-25 19:04 | 55.44939 | 89.27485 | 33189 ft | 470 kts | 83° |
| 2026-04-25 19:05 | 55.45942 | 89.50379 | 33208 ft | 468 kts | 83° |
| 2026-04-25 19:06 | 55.46423 | 89.61938 | 33210 ft | 477 kts | 83° |
| 2026-04-25 19:06 | 55.47150 | 89.79623 | 33209 ft | 485 kts | 83° |
| 2026-04-25 19:07 | 55.47861 | 89.97363 | 33203 ft | 486 kts | 84° |
| 2026-04-25 19:08 | 55.48532 | 90.15118 | 33196 ft | 483 kts | 84° |
| 2026-04-25 19:09 | 55.49240 | 90.34830 | 33192 ft | 482 kts | 84° |
| 2026-04-25 19:10 | 55.50351 | 90.67477 | 33650 ft | 479 kts | 83° |
| 2026-04-25 19:10 | 55.51105 | 90.90824 | 34239 ft | 476 kts | 83° |
| 2026-04-25 19:10 | 55.51639 | 91.14183 | 34709 ft | 479 kts | 91° |
| 2026-04-25 19:10 | 55.50340 | 91.37520 | 35233 ft | 478 kts | 92° |
| 2026-04-25 19:11 | 55.49063 | 91.60858 | 35715 ft | 478 kts | 92° |
| 2026-04-25 19:11 | 55.47730 | 91.84186 | 36230 ft | 477 kts | 92° |
| 2026-04-25 19:11 | 55.46350 | 92.07401 | 36754 ft | 475 kts | 92° |
| 2026-04-25 19:11 | 55.44945 | 92.30500 | 37317 ft | 474 kts | 92° |
| 2026-04-25 19:12 | 55.44156 | 92.43248 | 37238 ft | 478 kts | 92° |
| 2026-04-25 19:12 | 55.41998 | 92.77174 | 37307 ft | 480 kts | 92° |
| 2026-04-25 19:12 | 55.40483 | 93.00205 | 37435 ft | 476 kts | 92° |
| 2026-04-25 19:13 | 55.39084 | 93.20869 | 37398 ft | 474 kts | 92° |
| 2026-04-25 19:13 | 55.38695 | 93.26546 | 37291 ft | 477 kts | 93° |
| 2026-04-25 19:13 | 55.38296 | 93.32355 | 37289 ft | 480 kts | 92° |
| 2026-04-25 19:14 | 55.37487 | 93.44025 | 37274 ft | 482 kts | 92° |
| 2026-04-25 19:14 | 55.36650 | 93.55742 | 37273 ft | 482 kts | 92° |
| 2026-04-25 19:15 | 55.35806 | 93.67457 | 37284 ft | 482 kts | 92° |
| 2026-04-25 19:15 | 55.34965 | 93.79079 | 37275 ft | 482 kts | 92° |
| 2026-04-25 19:16 | 55.34102 | 93.90775 | 37307 ft | 483 kts | 92° |
| 2026-04-25 19:16 | 55.33223 | 94.02491 | 37293 ft | 484 kts | 92° |
| 2026-04-25 19:17 | 55.32337 | 94.14228 | 37284 ft | 484 kts | 92° |
| 2026-04-25 19:17 | 55.31592 | 94.23972 | 37291 ft | 484 kts | 93° |
| 2026-04-25 19:18 | 55.30684 | 94.35700 | 37289 ft | 485 kts | 93° |
| 2026-04-25 19:18 | 55.29612 | 94.49319 | 37312 ft | 485 kts | 93° |
| 2026-04-25 19:19 | 55.27200 | 94.79356 | 37312 ft | 486 kts | 93° |
| 2026-04-25 19:19 | 55.23804 | 95.26342 | 37315 ft | 486 kts | 92° |
| 2026-04-25 19:20 | 55.20496 | 95.70646 | 37321 ft | 486 kts | 92° |
| 2026-04-25 19:20 | 55.19609 | 95.82265 | 37319 ft | 487 kts | 92° |
| 2026-04-25 19:21 | 55.18705 | 95.93973 | 37294 ft | 485 kts | 92° |
| 2026-04-25 19:21 | 55.17316 | 96.11544 | 37298 ft | 487 kts | 93° |
| 2026-04-25 19:22 | 55.16377 | 96.23272 | 37323 ft | 487 kts | 93° |
| 2026-04-25 19:23 | 55.14950 | 96.40872 | 37333 ft | 487 kts | 93° |
| 2026-04-25 19:23 | 55.13500 | 96.58460 | 37335 ft | 487 kts | 93° |
| 2026-04-25 19:24 | 55.12518 | 96.70194 | 37360 ft | 488 kts | 93° |
| 2026-04-25 19:25 | 55.10498 | 96.93669 | 37344 ft | 489 kts | 93° |
| 2026-04-25 19:25 | 55.09479 | 97.05408 | 37340 ft | 489 kts | 93° |
| 2026-04-25 19:26 | 55.08439 | 97.17082 | 37367 ft | 490 kts | 94° |
| 2026-04-25 19:26 | 55.07322 | 97.28829 | 37348 ft | 490 kts | 94° |
| 2026-04-25 19:27 | 55.06376 | 97.38590 | 37344 ft | 491 kts | 94° |
| 2026-04-25 19:27 | 55.05035 | 97.52316 | 37345 ft | 491 kts | 94° |
| 2026-04-25 19:28 | 55.03890 | 97.64006 | 37336 ft | 491 kts | 94° |
| 2026-04-25 19:28 | 55.01580 | 97.87441 | 37365 ft | 492 kts | 95° |
| 2026-04-25 19:29 | 54.97255 | 98.29604 | 37368 ft | 493 kts | 95° |
| 2026-04-25 19:29 | 54.96040 | 98.41226 | 37360 ft | 493 kts | 95° |
| 2026-04-25 19:30 | 54.94797 | 98.52964 | 37357 ft | 493 kts | 95° |
| 2026-04-25 19:30 | 54.93542 | 98.64706 | 37357 ft | 494 kts | 95° |
| 2026-04-25 19:31 | 54.92275 | 98.76430 | 37394 ft | 494 kts | 95° |
| 2026-04-25 19:31 | 54.91002 | 98.88171 | 37385 ft | 493 kts | 95° |
| 2026-04-25 19:32 | 54.89727 | 98.99818 | 37364 ft | 493 kts | 95° |
| 2026-04-25 19:32 | 54.88114 | 99.09376 | 37357 ft | 502 kts | 110° |
| 2026-04-25 19:33 | 54.84480 | 99.22136 | 37342 ft | 504 kts | 112° |
| 2026-04-25 19:33 | 54.81363 | 99.33024 | 37373 ft | 504 kts | 112° |
| 2026-04-25 19:34 | 54.78244 | 99.43922 | 37361 ft | 504 kts | 112° |
| 2026-04-25 19:34 | 54.75134 | 99.54716 | 37353 ft | 504 kts | 112° |
| 2026-04-25 19:35 | 54.71986 | 99.65563 | 37341 ft | 505 kts | 112° |
| 2026-04-25 19:35 | 54.68822 | 99.76412 | 37370 ft | 505 kts | 112° |
| 2026-04-25 19:36 | 54.65654 | 99.87241 | 37360 ft | 505 kts | 112° |
| 2026-04-25 19:36 | 54.62476 | 99.98066 | 37340 ft | 505 kts | 112° |
| 2026-04-25 19:37 | 54.59288 | 100.08865 | 37339 ft | 505 kts | 113° |
| 2026-04-25 19:37 | 54.56107 | 100.19582 | 37318 ft | 505 kts | 113° |
| 2026-04-25 19:38 | 54.52889 | 100.30343 | 37318 ft | 506 kts | 113° |
| 2026-04-25 19:38 | 54.49657 | 100.41113 | 37322 ft | 506 kts | 113° |
| 2026-04-25 19:39 | 54.46431 | 100.51867 | 37327 ft | 506 kts | 113° |
| 2026-04-25 19:39 | 54.43177 | 100.62607 | 37329 ft | 506 kts | 113° |
| 2026-04-25 19:40 | 54.39914 | 100.73327 | 37364 ft | 506 kts | 114° |
| 2026-04-25 19:40 | 54.36669 | 100.83972 | 37353 ft | 506 kts | 114° |
| 2026-04-25 19:41 | 54.33405 | 100.94663 | 37339 ft | 506 kts | 114° |
| 2026-04-25 19:41 | 54.31210 | 101.01800 | 37337 ft | 506 kts | 114° |
| 2026-04-25 19:42 | 54.26826 | 101.15991 | 37343 ft | 506 kts | 114° |
| 2026-04-25 19:42 | 54.23523 | 101.26628 | 37369 ft | 506 kts | 114° |
| 2026-04-25 19:43 | 54.20210 | 101.37250 | 37343 ft | 506 kts | 114° |
| 2026-04-25 19:43 | 54.16886 | 101.47846 | 37342 ft | 506 kts | 114° |
| 2026-04-25 19:44 | 54.13583 | 101.58362 | 37337 ft | 506 kts | 114° |
| 2026-04-25 19:44 | 54.10252 | 101.68916 | 37335 ft | 506 kts | 115° |
| 2026-04-25 19:45 | 54.06905 | 101.79456 | 37347 ft | 505 kts | 115° |
| 2026-04-25 19:45 | 54.03553 | 101.89965 | 37340 ft | 505 kts | 115° |
| 2026-04-25 19:46 | 54.00192 | 102.00466 | 37336 ft | 505 kts | 115° |
| 2026-04-25 19:46 | 53.96834 | 102.10949 | 37332 ft | 505 kts | 115° |
| 2026-04-25 19:47 | 53.93473 | 102.21427 | 37358 ft | 505 kts | 115° |
| 2026-04-25 19:47 | 53.90107 | 102.31904 | 37338 ft | 505 kts | 115° |
| 2026-04-25 19:48 | 53.86726 | 102.42343 | 37329 ft | 505 kts | 115° |
| 2026-04-25 19:48 | 53.83330 | 102.52759 | 37305 ft | 505 kts | 116° |
| 2026-04-25 19:49 | 53.81075 | 102.59647 | 37306 ft | 505 kts | 116° |
| 2026-04-25 19:49 | 53.76531 | 102.73492 | 37317 ft | 505 kts | 116° |
| 2026-04-25 19:50 | 53.71392 | 102.89056 | 37306 ft | 505 kts | 116° |
| 2026-04-25 19:51 | 53.67964 | 102.99400 | 37302 ft | 505 kts | 116° |
| 2026-04-25 19:51 | 53.64513 | 103.09736 | 37333 ft | 505 kts | 116° |
| 2026-04-25 19:52 | 53.61061 | 103.20041 | 37303 ft | 505 kts | 116° |
| 2026-04-25 19:52 | 53.57602 | 103.30331 | 37305 ft | 505 kts | 117° |
| 2026-04-25 19:53 | 53.54141 | 103.40599 | 37284 ft | 505 kts | 117° |
| 2026-04-25 19:53 | 53.50665 | 103.50844 | 37285 ft | 505 kts | 117° |
| 2026-04-25 19:54 | 53.47191 | 103.61086 | 37307 ft | 504 kts | 117° |
| 2026-04-25 19:54 | 53.43712 | 103.71301 | 37271 ft | 505 kts | 117° |
| 2026-04-25 19:55 | 53.40227 | 103.81440 | 37266 ft | 505 kts | 117° |
| 2026-04-25 19:55 | 53.36734 | 103.91649 | 37262 ft | 505 kts | 116° |
| 2026-04-25 19:56 | 53.33454 | 104.02033 | 37296 ft | 504 kts | 114° |
| 2026-04-25 19:56 | 53.30266 | 104.12466 | 37260 ft | 501 kts | 115° |
| 2026-04-25 19:57 | 53.27072 | 104.22651 | 37248 ft | 491 kts | 115° |
| 2026-04-25 19:57 | 53.23849 | 104.32690 | 37250 ft | 489 kts | 116° |
| 2026-04-25 19:58 | 53.20646 | 104.42630 | 37253 ft | 489 kts | 115° |
| 2026-04-25 19:58 | 53.17429 | 104.52633 | 37257 ft | 489 kts | 116° |
| 2026-04-25 19:59 | 53.14214 | 104.62635 | 37254 ft | 489 kts | 115° |
| 2026-04-25 19:59 | 53.11102 | 104.72702 | 37261 ft | 489 kts | 114° |
| 2026-04-25 20:00 | 53.08049 | 104.82823 | 37270 ft | 489 kts | 114° |
| 2026-04-25 20:00 | 53.04968 | 104.92913 | 37271 ft | 490 kts | 115° |
| 2026-04-25 20:01 | 53.00273 | 105.07986 | 37288 ft | 490 kts | 115° |
| 2026-04-25 20:01 | 52.97131 | 105.18016 | 37277 ft | 490 kts | 116° |
| 2026-04-25 20:02 | 52.93147 | 105.27219 | 36976 ft | 493 kts | 128° |
| 2026-04-25 20:02 | 52.90942 | 105.31567 | 36731 ft | 492 kts | 128° |
| 2026-04-25 20:02 | 52.88726 | 105.35903 | 36521 ft | 492 kts | 129° |
| 2026-04-25 20:03 | 52.86512 | 105.40220 | 36272 ft | 492 kts | 129° |
| 2026-04-25 20:03 | 52.84298 | 105.44534 | 36029 ft | 492 kts | 129° |
| 2026-04-25 20:03 | 52.82086 | 105.48845 | 35790 ft | 491 kts | 129° |
| 2026-04-25 20:03 | 52.79903 | 105.53100 | 35542 ft | 491 kts | 129° |
| 2026-04-25 20:04 | 52.77684 | 105.57428 | 34632 ft | 496 kts | 129° |
| 2026-04-25 20:04 | 52.75443 | 105.61788 | 33655 ft | 498 kts | 129° |
| 2026-04-25 20:04 | 52.73191 | 105.66158 | 32586 ft | 500 kts | 128° |
| 2026-04-25 20:04 | 52.70923 | 105.70548 | 31515 ft | 501 kts | 128° |
| 2026-04-25 20:05 | 52.68662 | 105.74911 | 30479 ft | 501 kts | 129° |
| 2026-04-25 20:05 | 52.66396 | 105.79279 | 29262 ft | 501 kts | 129° |
| 2026-04-25 20:05 | 52.64907 | 105.82145 | 29012 ft | 490 kts | 129° |
| 2026-04-25 20:05 | 52.61977 | 105.87780 | 28063 ft | 480 kts | 129° |
| 2026-04-25 20:06 | 52.60546 | 105.90525 | 27609 ft | 476 kts | 129° |
| 2026-04-25 20:06 | 52.58412 | 105.94615 | 27070 ft | 464 kts | 129° |
| 2026-04-25 20:06 | 52.56330 | 105.98602 | 26152 ft | 456 kts | 129° |
| 2026-04-25 20:06 | 52.54275 | 106.02533 | 25393 ft | 452 kts | 130° |
| 2026-04-25 20:07 | 52.52233 | 106.06425 | 24808 ft | 447 kts | 130° |
| 2026-04-25 20:07 | 52.50213 | 106.10261 | 24235 ft | 442 kts | 130° |
| 2026-04-25 20:07 | 52.48212 | 106.14063 | 23639 ft | 438 kts | 130° |
| 2026-04-25 20:07 | 52.46222 | 106.17847 | 22933 ft | 436 kts | 130° |
| 2026-04-25 20:08 | 52.44248 | 106.21597 | 22293 ft | 433 kts | 130° |
| 2026-04-25 20:08 | 52.42283 | 106.25325 | 21699 ft | 430 kts | 131° |
| 2026-04-25 20:08 | 52.40329 | 106.29022 | 21129 ft | 427 kts | 131° |
| 2026-04-25 20:08 | 52.38417 | 106.32627 | 20581 ft | 424 kts | 131° |
| 2026-04-25 20:09 | 52.36487 | 106.36259 | 20051 ft | 421 kts | 131° |
| 2026-04-25 20:09 | 52.34572 | 106.39864 | 19584 ft | 416 kts | 131° |
| 2026-04-25 20:09 | 52.32706 | 106.43379 | 19455 ft | 402 kts | 131° |
| 2026-04-25 20:09 | 52.30901 | 106.46777 | 19328 ft | 389 kts | 131° |
| 2026-04-25 20:10 | 52.29072 | 106.49940 | 19201 ft | 376 kts | 141° |
| 2026-04-25 20:10 | 52.26942 | 106.52190 | 19085 ft | 352 kts | 159° |
| 2026-04-25 20:10 | 52.24696 | 106.53318 | 18958 ft | 324 kts | 177° |
| 2026-04-25 20:10 | 52.22546 | 106.53425 | 18836 ft | 299 kts | 193° |
| 2026-04-25 20:11 | 52.20577 | 106.52706 | 18699 ft | 282 kts | 208° |
| 2026-04-25 20:11 | 52.18857 | 106.51359 | 18430 ft | 269 kts | 221° |
| 2026-04-25 20:11 | 52.17412 | 106.49507 | 18068 ft | 260 kts | 233° |
| 2026-04-25 20:11 | 52.16274 | 106.47280 | 17712 ft | 252 kts | 245° |
| 2026-04-25 20:12 | 52.15461 | 106.44796 | 17338 ft | 246 kts | 255° |
| 2026-04-25 20:12 | 52.14973 | 106.42164 | 16990 ft | 240 kts | 265° |
| 2026-04-25 20:12 | 52.14813 | 106.39525 | 16671 ft | 236 kts | 275° |
| 2026-04-25 20:12 | 52.14878 | 106.37737 | 16459 ft | 233 kts | 282° |
| 2026-04-25 20:13 | 52.15389 | 106.34389 | 16068 ft | 229 kts | 295° |
| 2026-04-25 20:13 | 52.16093 | 106.32080 | 15768 ft | 226 kts | 304° |
| 2026-04-25 20:13 | 52.16997 | 106.29990 | 15472 ft | 225 kts | 309° |
| 2026-04-25 20:13 | 52.17981 | 106.28001 | 15176 ft | 225 kts | 310° |
| 2026-04-25 20:14 | 52.18985 | 106.26048 | 14895 ft | 224 kts | 311° |
| 2026-04-25 20:14 | 52.19987 | 106.24108 | 14619 ft | 223 kts | 311° |
| 2026-04-25 20:14 | 52.20986 | 106.22169 | 14339 ft | 223 kts | 311° |
| 2026-04-25 20:14 | 52.21977 | 106.20232 | 14059 ft | 222 kts | 311° |
| 2026-04-25 20:15 | 52.22963 | 106.18296 | 13749 ft | 221 kts | 311° |
| 2026-04-25 20:15 | 52.23944 | 106.16362 | 13445 ft | 220 kts | 311° |
| 2026-04-25 20:15 | 52.24916 | 106.14441 | 13300 ft | 220 kts | 311° |
| 2026-04-25 20:15 | 52.25887 | 106.12513 | 13296 ft | 220 kts | 311° |
| 2026-04-25 20:16 | 52.26861 | 106.10576 | 13300 ft | 221 kts | 311° |
| 2026-04-25 20:16 | 52.27824 | 106.08661 | 13300 ft | 221 kts | 311° |
| 2026-04-25 20:16 | 52.28836 | 106.06780 | 13296 ft | 220 kts | 317° |
| 2026-04-25 20:16 | 52.30027 | 106.05207 | 13298 ft | 220 kts | 326° |
| 2026-04-25 20:17 | 52.31380 | 106.04022 | 13300 ft | 221 kts | 336° |
| 2026-04-25 20:17 | 52.32855 | 106.03264 | 13282 ft | 228 kts | 347° |
| 2026-04-25 20:17 | 52.34478 | 106.03382 | 13286 ft | 243 kts | 13° |
| 2026-04-25 20:17 | 52.35919 | 106.04923 | 13291 ft | 260 kts | 45° |
| 2026-04-25 20:18 | 52.36631 | 106.07701 | 13310 ft | 277 kts | 81° |
| 2026-04-25 20:18 | 52.36411 | 106.10926 | 13313 ft | 301 kts | 98° |
| 2026-04-25 20:18 | 52.35888 | 106.14430 | 13303 ft | 334 kts | 102° |
| 2026-04-25 20:18 | 52.35233 | 106.18221 | 13294 ft | 349 kts | 103° |
| 2026-04-25 20:19 | 52.34541 | 106.22009 | 13301 ft | 346 kts | 103° |
| 2026-04-25 20:19 | 52.33858 | 106.25780 | 13299 ft | 346 kts | 103° |
| 2026-04-25 20:19 | 52.33193 | 106.29561 | 13297 ft | 345 kts | 102° |
| 2026-04-25 20:19 | 52.32547 | 106.33343 | 13297 ft | 345 kts | 102° |
| 2026-04-25 20:20 | 52.31911 | 106.37128 | 13295 ft | 345 kts | 102° |
| 2026-04-25 20:20 | 52.31280 | 106.40911 | 13297 ft | 345 kts | 102° |
| 2026-04-25 20:20 | 52.30614 | 106.44686 | 13299 ft | 346 kts | 106° |
| 2026-04-25 20:20 | 52.29657 | 106.48307 | 13302 ft | 349 kts | 116° |
| 2026-04-25 20:21 | 52.28368 | 106.51674 | 13302 ft | 351 kts | 125° |
| 2026-04-25 20:21 | 52.26834 | 106.54770 | 13309 ft | 350 kts | 128° |
| 2026-04-25 20:21 | 52.25282 | 106.57839 | 13216 ft | 349 kts | 128° |
| 2026-04-25 20:21 | 52.23755 | 106.60863 | 12927 ft | 342 kts | 128° |
| 2026-04-25 20:22 | 52.22274 | 106.63794 | 12666 ft | 335 kts | 128° |
| 2026-04-25 20:22 | 52.21274 | 106.65771 | 12480 ft | 331 kts | 128° |
| 2026-04-25 20:22 | 52.19358 | 106.69551 | 12127 ft | 320 kts | 128° |
| 2026-04-25 20:22 | 52.17959 | 106.72304 | 11864 ft | 308 kts | 128° |
| 2026-04-25 20:23 | 52.16614 | 106.74947 | 11604 ft | 298 kts | 128° |
| 2026-04-25 20:23 | 52.15301 | 106.77523 | 11329 ft | 295 kts | 128° |
| 2026-04-25 20:23 | 52.13994 | 106.80090 | 11074 ft | 295 kts | 128° |
| 2026-04-25 20:23 | 52.12641 | 106.82751 | 10823 ft | 311 kts | 128° |
| 2026-04-25 20:24 | 52.11253 | 106.85480 | 10569 ft | 313 kts | 128° |
| 2026-04-25 20:24 | 52.09859 | 106.88202 | 10319 ft | 313 kts | 128° |
| 2026-04-25 20:24 | 52.08456 | 106.90897 | 10133 ft | 312 kts | 128° |
| 2026-04-25 20:24 | 52.07050 | 106.93578 | 9996 ft | 312 kts | 128° |
| 2026-04-25 20:25 | 52.05526 | 106.96031 | 9857 ft | 313 kts | 141° |
| 2026-04-25 20:25 | 52.03697 | 106.97935 | 9720 ft | 313 kts | 154° |
| 2026-04-25 20:25 | 52.01670 | 106.99171 | 9562 ft | 311 kts | 167° |
| 2026-04-25 20:25 | 51.99541 | 106.99702 | 9427 ft | 309 kts | 180° |
| 2026-04-25 20:26 | 51.97402 | 106.99560 | 9291 ft | 307 kts | 187° |
| 2026-04-25 20:26 | 51.95275 | 106.99276 | 9154 ft | 306 kts | 187° |
| 2026-04-25 20:26 | 51.93150 | 106.98995 | 9018 ft | 305 kts | 187° |
| 2026-04-25 20:26 | 51.91040 | 106.98720 | 8875 ft | 304 kts | 187° |
| 2026-04-25 20:27 | 51.88932 | 106.98449 | 8743 ft | 303 kts | 187° |
| 2026-04-25 20:27 | 51.86829 | 106.98182 | 8495 ft | 303 kts | 187° |
| 2026-04-25 20:27 | 51.84729 | 106.98184 | 8084 ft | 302 kts | 175° |
| 2026-04-25 20:27 | 51.82669 | 106.98826 | 7695 ft | 300 kts | 168° |
| 2026-04-25 20:28 | 51.80651 | 106.99542 | 7303 ft | 291 kts | 169° |
| 2026-04-25 20:28 | 51.78761 | 107.00352 | 6960 ft | 276 kts | 156° |
| 2026-04-25 20:28 | 51.77247 | 107.02070 | 6639 ft | 259 kts | 129° |
| 2026-04-25 20:28 | 51.76365 | 107.04452 | 6423 ft | 238 kts | 104° |
| 2026-04-25 20:29 | 51.76119 | 107.06953 | 6166 ft | 217 kts | 82° |
| 2026-04-25 20:29 | 51.76357 | 107.09271 | 5919 ft | 204 kts | 72° |
| 2026-04-25 20:29 | 51.76650 | 107.11450 | 5616 ft | 194 kts | 72° |
| 2026-04-25 20:29 | 51.76932 | 107.13544 | 5344 ft | 187 kts | 72° |
| 2026-04-25 20:30 | 51.77198 | 107.15534 | 5098 ft | 175 kts | 72° |
| 2026-04-25 20:30 | 51.77440 | 107.17351 | 4870 ft | 159 kts | 72° |
| 2026-04-25 20:30 | 51.77667 | 107.19045 | 4651 ft | 151 kts | 72° |
| 2026-04-25 20:30 | 51.77887 | 107.20688 | 4439 ft | 148 kts | 73° |
| 2026-04-25 20:31 | 51.78105 | 107.22314 | 4230 ft | 147 kts | 73° |
| 2026-04-25 20:31 | 51.78320 | 107.23926 | 4036 ft | 147 kts | 74° |
| 2026-04-25 20:31 | 51.78532 | 107.25520 | 3839 ft | 144 kts | 75° |
| 2026-04-25 20:31 | 51.78742 | 107.27097 | 3639 ft | 143 kts | 75° |
| 2026-04-25 20:32 | 51.78950 | 107.28666 | 3445 ft | 143 kts | 76° |
| 2026-04-25 20:32 | 51.79157 | 107.30228 | 3243 ft | 142 kts | 76° |
| 2026-04-25 20:32 | 51.79363 | 107.31781 | 3037 ft | 141 kts | 76° |
| 2026-04-25 20:32 | 51.79568 | 107.33330 | 2835 ft | 140 kts | 77° |
| 2026-04-25 20:33 | 51.79769 | 107.34848 | 2617 ft | 140 kts | 77° |
| 2026-04-25 20:33 | 51.79973 | 107.36378 | 2417 ft | 139 kts | 77° |
| 2026-04-25 20:33 | 51.80175 | 107.37899 | 2217 ft | 138 kts | 77° |
| 2026-04-25 20:33 | 51.80308 | 107.38929 | 2088 ft | 138 kts | 77° |
| 2026-04-25 20:34 | 51.80574 | 107.40933 | 1856 ft | 138 kts | 77° |
| 2026-04-25 20:34 | 51.80769 | 107.42435 | 1721 ft | 130 kts | 78° |
| 2026-04-25 20:34 | 51.80924 | 107.43625 | 1716 ft | 80 kts | 78° |
| 2026-04-25 20:34 | 51.80985 | 107.44103 | 1717 ft | 15 kts | 78° |
| 2026-04-25 20:35 | 51.80982 | 107.44200 | 1719 ft | 7 kts | 127° |
| 2026-04-25 20:35 | 51.80945 | 107.44226 | 1720 ft | 5 kts | 171° |
| 2026-04-25 20:35 | 51.80909 | 107.44241 | 1719 ft | 6 kts | 167° |
| 2026-04-25 20:35 | 51.80870 | 107.44254 | 1718 ft | 6 kts | 168° |
| 2026-04-25 20:36 | 51.80834 | 107.44266 | 1718 ft | 5 kts | 168° |
| 2026-04-25 20:36 | 51.80802 | 107.44277 | 1717 ft | 4 kts | 168° |
| 2026-04-25 20:36 | 51.80776 | 107.44286 | 1718 ft | 3 kts | 168° |
| 2026-04-25 20:36 | 51.80738 | 107.44299 | 1718 ft | 8 kts | 168° |
| 2026-04-25 20:37 | 51.80682 | 107.44319 | 1718 ft | 8 kts | 168° |
| 2026-04-25 20:37 | 51.80638 | 107.44307 | 1718 ft | 6 kts | 226° |
| 2026-04-25 20:37 | 51.80631 | 107.44254 | 1718 ft | 4 kts | 258° |
| 2026-04-25 20:37 | 51.80624 | 107.44203 | 1718 ft | 7 kts | 258° |
| 2026-04-25 20:38 | 51.80603 | 107.44152 | 1718 ft | 3 kts | 186° |
| 2026-04-25 20:38 | 51.80582 | 107.44164 | 1718 ft | 3 kts | 165° |
| 2026-04-25 20:38 | 51.80561 | 107.44171 | 1718 ft | 3 kts | 169° |
| 2026-04-25 20:38 | 51.80538 | 107.44178 | 1718 ft | 4 kts | 168° |
| 2026-04-25 20:39 | 51.80522 | 107.44184 | 1718 ft | 0 kts | 168° |
| 2026-04-25 20:39 | 51.80520 | 107.44184 | 1718 ft | 0 kts | 168° |